Time;durP1;ratioP1;P1;durP2;ratioP2;P2;SDS_P1;SDS_P2;PMS_P1;PMS_P2;Temp;Humidity;BMP_temperature;BMP_pressure;BME280_temperature;BME280_humidity;BME280_pressure;Samples;Min_cycle;Max_cycle;Signal;HPM_P1;HPM_P2
2022/12/31 00:02:15;;;;;;;25.40;16.10;;;;;;;5.37;100.00;99280.75;5052216;28;20380;-76
2022/12/31 00:04:41;;;;;;;27.67;17.35;;;;;;;5.45;100.00;99285.69;5052071;28;20021;-76
2022/12/31 00:07:06;;;;;;;26.38;16.67;;;;;;;5.41;100.00;99272.03;5051998;28;20051;-76
2022/12/31 00:09:31;;;;;;;26.15;16.45;;;;;;;5.49;100.00;99282.13;5052193;28;20028;-76
2022/12/31 00:11:57;;;;;;;19.10;14.57;;;;;;;5.43;100.00;99262.47;5051882;28;20449;-76
2022/12/31 00:14:22;;;;;;;26.58;15.68;;;;;;;5.45;100.00;99263.28;5052383;28;20033;-76
2022/12/31 00:16:47;;;;;;;22.15;16.10;;;;;;;5.50;100.00;99271.72;5051739;28;20183;-76
2022/12/31 00:19:13;;;;;;;23.77;15.38;;;;;;;5.45;100.00;99271.03;5052283;28;20025;-76
2022/12/31 00:21:38;;;;;;;20.40;13.85;;;;;;;5.56;100.00;99270.69;5051770;28;20036;-76
2022/12/31 00:24:05;;;;;;;24.02;14.60;;;;;;;5.53;100.00;99264.78;5051911;28;20127;-76
2022/12/31 00:26:32;;;;;;;20.20;14.38;;;;;;;5.57;100.00;99268.97;5051842;28;20376;-76
2022/12/31 00:28:58;;;;;;;21.85;15.70;;;;;;;5.56;100.00;99275.84;5051639;28;20021;-76
2022/12/31 00:31:31;;;;;;;22.15;15.45;;;;;;;5.58;100.00;99268.91;5051755;28;20479;-76
2022/12/31 00:33:58;;;;;;;26.55;17.10;;;;;;;5.51;100.00;99259.66;5051524;28;20025;-76
2022/12/31 00:36:26;;;;;;;21.67;15.27;;;;;;;5.53;100.00;99268.22;5051949;28;20028;-76
2022/12/31 00:38:53;;;;;;;25.73;15.73;;;;;;;5.54;100.00;99267.31;5051546;28;20068;-76
2022/12/31 00:41:20;;;;;;;27.42;18.00;;;;;;;5.63;100.00;99286.84;5051786;28;20082;-76
2022/12/31 00:43:46;;;;;;;24.23;15.43;;;;;;;5.64;100.00;99296.28;5051820;28;20029;-76
2022/12/31 00:46:12;;;;;;;23.52;14.77;;;;;;;5.69;100.00;99297.00;5051463;28;20021;-76
2022/12/31 00:48:38;;;;;;;21.95;14.55;;;;;;;5.65;100.00;99298.81;5051563;28;20456;-76
2022/12/31 00:51:07;;;;;;;24.30;14.57;;;;;;;5.67;100.00;99284.09;5051604;28;20116;-76
2022/12/31 00:53:32;;;;;;;22.98;14.93;;;;;;;5.64;100.00;99273.88;5052139;28;20096;-76
2022/12/31 00:56:03;;;;;;;21.02;16.02;;;;;;;5.70;100.00;99294.34;5055385;28;20108;-76
2022/12/31 00:58:28;;;;;;;21.75;14.32;;;;;;;5.77;100.00;99300.16;5055885;28;20370;-76
2022/12/31 01:00:54;;;;;;;24.73;15.73;;;;;;;5.74;100.00;99295.94;5055243;28;20027;-76
2022/12/31 01:03:19;;;;;;;20.85;14.73;;;;;;;5.80;100.00;99294.88;5055345;28;20025;-76
2022/12/31 01:05:44;;;;;;;23.35;15.70;;;;;;;5.75;100.00;99273.53;5055636;28;20025;-76
2022/12/31 01:08:10;;;;;;;24.25;16.02;;;;;;;5.79;100.00;99282.03;5055122;28;20036;-76
2022/12/31 01:13:19;;;;;;;28.63;17.30;;;;;;;5.68;100.00;99270.28;5055256;28;20090;-76
2022/12/31 01:15:44;;;;;;;24.95;16.40;;;;;;;5.71;100.00;99287.44;5055122;28;20021;-76
2022/12/31 01:18:10;;;;;;;26.30;17.60;;;;;;;5.63;100.00;99268.75;5054950;28;20029;-76
2022/12/31 01:20:38;;;;;;;27.77;18.35;;;;;;;5.63;100.00;99266.19;5055118;28;20021;-76
2022/12/31 01:23:04;;;;;;;29.42;18.88;;;;;;;5.62;100.00;99269.66;5054616;28;20033;-76
2022/12/31 01:25:30;;;;;;;32.13;19.42;;;;;;;5.62;100.00;99272.25;5054872;28;20033;-76
2022/12/31 01:27:55;;;;;;;27.27;18.38;;;;;;;5.60;100.00;99264.53;5054845;28;20025;-76
2022/12/31 01:30:20;;;;;;;28.50;17.13;;;;;;;5.60;100.00;99269.69;5054724;28;20017;-76
2022/12/31 01:32:46;;;;;;;25.73;17.88;;;;;;;5.67;100.00;99280.69;5055088;28;20025;-76
2022/12/31 01:35:11;;;;;;;26.75;17.08;;;;;;;5.59;100.00;99277.50;5055098;28;20021;-76
2022/12/31 01:37:37;;;;;;;28.63;19.25;;;;;;;5.59;100.00;99273.16;5055005;28;20139;-76
2022/12/31 01:40:03;;;;;;;24.58;16.42;;;;;;;5.72;100.00;99281.38;5054488;28;20128;-76
2022/12/31 01:42:29;;;;;;;23.35;15.25;;;;;;;5.67;100.00;99273.78;5054798;28;20100;-76
2022/12/31 01:44:55;;;;;;;21.05;14.43;;;;;;;5.79;100.00;99284.59;5054269;28;20021;-76
2022/12/31 01:47:43;;;;;;;19.40;14.25;;;;;;;5.87;100.00;99298.13;5054743;28;20025;-76
2022/12/31 01:50:16;;;;;;;17.15;13.15;;;;;;;5.93;100.00;99301.38;5054430;28;20471;-76
2022/12/31 01:52:49;;;;;;;20.40;12.52;;;;;;;6.00;100.00;99308.03;5054632;28;20364;-76
2022/12/31 01:55:19;;;;;;;22.77;13.32;;;;;;;6.06;100.00;99303.53;5054274;28;20528;-76
2022/12/31 01:57:48;;;;;;;15.90;11.52;;;;;;;6.11;100.00;99314.56;5054478;28;20491;-76
2022/12/31 02:00:14;;;;;;;15.27;11.38;;;;;;;6.14;100.00;99311.88;5054612;28;20357;-76
2022/12/31 02:02:40;;;;;;;18.00;12.00;;;;;;;6.17;100.00;99315.22;5054482;28;20113;-76
2022/12/31 02:05:21;;;;;;;20.25;11.75;;;;;;;6.16;100.00;99312.69;5053886;28;20108;-76
2022/12/31 02:07:46;;;;;;;;;;;;;;;6.33;100.00;99332.81;5054768;28;20017;-76
2022/12/31 02:10:11;;;;;;;15.20;10.80;;;;;;;6.29;100.00;99315.72;5054475;28;20016;-76
2022/12/31 02:12:37;;;;;;;14.98;10.38;;;;;;;6.33;100.00;99323.31;5054386;28;20120;-76
2022/12/31 02:15:03;;;;;;;16.50;11.55;;;;;;;6.35;100.00;99318.06;5054082;28;20021;-76
2022/12/31 02:17:38;;;;;;;15.88;10.18;;;;;;;6.40;100.00;99319.59;5053986;28;20403;-76
2022/12/31 02:20:04;;;;;;;15.35;10.45;;;;;;;6.47;100.00;99331.41;5053883;28;20025;-76
2022/12/31 02:23:05;;;;;;;14.27;10.45;;;;;;;6.50;100.00;99331.31;5053925;28;20431;-76
2022/12/31 02:25:56;;;;;;;;;;;;;;;6.54;100.00;99332.06;5054567;28;20013;-76
2022/12/31 02:28:24;;;;;;;;;;;;;;;6.56;100.00;99322.50;5054360;28;19909;-76
2022/12/31 02:30:58;;;;;;;13.45;8.60;;;;;;;6.58;100.00;99319.88;5053694;28;19913;-76
2022/12/31 02:33:32;;;;;;;13.23;9.10;;;;;;;6.60;100.00;99329.25;5053946;28;20028;-76
2022/12/31 02:36:03;;;;;;;12.85;9.55;;;;;;;6.52;100.00;99322.66;5053688;28;20052;-76
2022/12/31 02:38:34;;;;;;;13.98;9.82;;;;;;;6.61;100.00;99336.09;5053497;28;20396;-76
2022/12/31 02:40:59;;;;;;;11.75;8.30;;;;;;;6.60;100.00;99334.41;5053416;28;20021;-76
2022/12/31 02:43:25;;;;;;;11.32;9.07;;;;;;;6.66;100.00;99347.16;5053793;28;20032;-76
2022/12/31 02:46:28;;;;;;;11.70;8.77;;;;;;;6.71;100.00;99345.25;5053687;28;20538;-76
2022/12/31 02:49:27;;;;;;;10.98;7.40;;;;;;;6.72;100.00;99331.41;5053487;28;20464;-76
2022/12/31 02:52:05;;;;;;;7.28;6.18;;;;;;;6.75;100.00;99340.81;5030848;28;20034;-76
2022/12/31 02:54:48;;;;;;;8.55;6.80;;;;;;;6.77;100.00;99341.59;5031052;28;20021;-75
2022/12/31 02:57:25;;;;;;;6.30;5.70;;;;;;;6.79;100.00;99334.63;5030628;28;20444;-76
2022/12/31 03:02:59;;;;;;;6.57;5.75;;;;;;;6.72;100.00;99336.56;5010914;28;20030;-76
2022/12/31 03:05:28;;;;;;;6.28;5.53;;;;;;;6.67;100.00;99335.91;4994089;28;20053;-76
2022/12/31 03:07:54;;;;;;;7.50;5.93;;;;;;;6.68;100.00;99336.75;5010986;28;20065;-76
2022/12/31 03:10:20;;;;;;;7.63;5.72;;;;;;;6.72;100.00;99346.09;5010366;28;20038;-76
2022/12/31 03:12:46;;;;;;;7.40;5.40;;;;;;;6.75;100.00;99351.16;5010650;28;20026;-76
2022/12/31 03:15:19;;;;;;;6.80;5.80;;;;;;;6.75;100.00;99358.94;5010609;28;20168;-76
2022/12/31 03:17:51;;;;;;;6.72;5.50;;;;;;;6.72;100.00;99356.44;5010003;28;20117;-76
2022/12/31 03:23:11;;;;;;;7.15;5.50;;;;;;;6.60;100.00;99346.50;5010865;28;20033;-76
2022/12/31 03:25:40;;;;;;;6.55;5.50;;;;;;;6.63;100.00;99349.84;5010827;28;20033;-76
2022/12/31 03:28:11;;;;;;;7.13;5.63;;;;;;;6.57;100.00;99347.47;5015359;28;20037;-76
2022/12/31 03:30:39;;;;;;;5.88;5.28;;;;;;;6.59;100.00;99342.25;5030291;28;20512;-76
2022/12/31 03:33:06;;;;;;;7.22;5.90;;;;;;;6.64;100.00;99364.47;5030360;28;20080;-76
2022/12/31 03:35:34;;;;;;;8.65;5.40;;;;;;;6.64;100.00;99354.13;5030274;28;20033;-76
2022/12/31 03:38:00;;;;;;;7.72;5.47;;;;;;;6.66;100.00;99360.09;5051033;28;20036;-76
2022/12/31 03:40:27;;;;;;;7.15;5.97;;;;;;;6.69;100.00;99359.97;5052358;28;20048;-76
2022/12/31 03:42:53;;;;;;;7.97;6.05;;;;;;;6.74;100.00;99376.19;5052507;28;20032;-76
2022/12/31 03:45:19;;;;;;;6.63;5.90;;;;;;;6.71;100.00;99360.78;5052262;28;20025;-76
2022/12/31 03:47:44;;;;;;;6.93;5.95;;;;;;;6.80;100.00;99374.28;5052201;28;20114;-75
2022/12/31 03:50:12;;;;;;;7.72;6.43;;;;;;;6.71;100.00;99362.53;5052028;28;20346;-76
2022/12/31 03:52:37;;;;;;;8.98;6.43;;;;;;;6.77;100.00;99377.81;5052480;28;20048;-76
2022/12/31 03:55:04;;;;;;;7.65;6.32;;;;;;;6.77;100.00;99380.41;5052134;28;20044;-76
2022/12/31 03:57:29;;;;;;;9.35;6.82;;;;;;;6.71;100.00;99365.94;5052275;28;20117;-76
2022/12/31 03:59:55;;;;;;;8.23;6.85;;;;;;;6.77;100.00;99388.16;5052280;28;20468;-76
2022/12/31 04:02:20;;;;;;;8.48;6.97;;;;;;;6.82;100.00;99381.09;5051849;28;20025;-76
2022/12/31 04:04:45;;;;;;;8.95;7.20;;;;;;;6.88;100.00;99386.06;5052308;28;20021;-76
2022/12/31 04:07:11;;;;;;;9.23;7.10;;;;;;;6.91;100.00;99374.72;5052065;28;20044;-76
2022/12/31 04:09:36;;;;;;;9.68;7.47;;;;;;;6.97;100.00;99379.69;5052390;28;20376;-76
2022/12/31 04:12:01;;;;;;;10.07;7.88;;;;;;;6.92;100.00;99361.75;5051887;28;20376;-76
2022/12/31 04:14:27;;;;;;;8.45;7.18;;;;;;;6.97;100.00;99366.75;5051905;28;20032;-76
2022/12/31 04:16:52;;;;;;;9.68;7.85;;;;;;;6.86;100.00;99350.75;5051911;28;20421;-76
2022/12/31 04:19:17;;;;;;;10.88;8.45;;;;;;;6.86;100.00;99348.16;5052146;28;20535;-76
2022/12/31 04:21:43;;;;;;;12.10;9.13;;;;;;;6.87;100.00;99344.66;5052119;28;20024;-76
2022/12/31 04:24:09;;;;;;;10.80;9.23;;;;;;;6.82;100.00;99337.06;5051789;28;20031;-76
2022/12/31 04:26:35;;;;;;;9.20;8.20;;;;;;;6.81;100.00;99342.31;5051942;28;20028;-76
2022/12/31 04:29:00;;;;;;;9.73;8.30;;;;;;;6.73;100.00;99327.06;5051775;28;20416;-76
2022/12/31 04:31:26;;;;;;;9.13;7.90;;;;;;;6.77;100.00;99346.75;5051383;28;20109;-76
2022/12/31 04:33:51;;;;;;;10.13;8.15;;;;;;;6.76;100.00;99350.25;5051997;28;20464;-76
2022/12/31 04:36:16;;;;;;;9.95;7.45;;;;;;;6.73;100.00;99355.53;5051575;28;20023;-76
2022/12/31 04:38:42;;;;;;;9.18;7.35;;;;;;;6.68;100.00;99365.22;5051758;28;20124;-76
2022/12/31 04:41:16;;;;;;;9.63;7.32;;;;;;;6.57;100.00;99355.22;5051712;28;20092;-76
2022/12/31 04:43:53;;;;;;;8.07;6.82;;;;;;;6.55;100.00;99346.69;5051697;28;20059;-76
2022/12/31 04:46:22;;;;;;;9.30;7.03;;;;;;;6.58;100.00;99356.94;5051472;28;20014;-76
2022/12/31 04:48:47;;;;;;;8.93;7.53;;;;;;;6.49;100.00;99341.72;5051744;28;20028;-76
2022/12/31 04:51:12;;;;;;;8.27;6.97;;;;;;;6.48;100.00;99340.03;5051522;28;20021;-76
2022/12/31 04:53:38;;;;;;;10.18;7.95;;;;;;;6.53;100.00;99356.25;5051635;28;20051;-76
2022/12/31 04:56:04;;;;;;;9.20;7.75;;;;;;;6.52;100.00;99359.72;5051619;28;20384;-76
2022/12/31 04:58:30;;;;;;;11.60;7.15;;;;;;;6.49;100.00;99359.84;5051346;28;20029;-76
2022/12/31 05:00:55;;;;;;;8.27;7.18;;;;;;;6.37;100.00;99348.16;5051795;28;20150;-76
2022/12/31 05:03:22;;;;;;;8.88;7.40;;;;;;;6.38;100.00;99362.78;5051522;28;20099;-76
2022/12/31 05:05:48;;;;;;;9.10;7.55;;;;;;;6.40;100.00;99349.78;5051614;28;20025;-76
2022/12/31 05:08:15;;;;;;;8.30;7.45;;;;;;;6.47;100.00;99356.44;5051355;28;20028;-76
2022/12/31 05:10:43;;;;;;;7.82;6.95;;;;;;;6.37;100.00;99348.16;5051434;28;20017;-76
2022/12/31 05:13:09;;;;;;;9.35;7.03;;;;;;;6.41;100.00;99367.03;5051128;28;20033;-76
2022/12/31 05:15:34;;;;;;;7.70;6.90;;;;;;;6.41;100.00;99372.19;5051662;28;20478;-76
2022/12/31 05:18:00;;;;;;;8.60;6.72;;;;;;;6.39;100.00;99364.47;5051593;28;20025;-76
2022/12/31 05:20:25;;;;;;;8.30;6.55;;;;;;;6.36;100.00;99367.19;5051186;28;20132;-76
2022/12/31 05:22:51;;;;;;;8.32;6.65;;;;;;;6.41;100.00;99356.69;5051454;28;20053;-76
2022/12/31 05:25:16;;;;;;;8.27;6.38;;;;;;;6.52;100.00;99357.13;5051354;28;20360;-76
2022/12/31 05:27:41;;;;;;;7.18;6.20;;;;;;;6.53;100.00;99351.06;5051297;28;20056;-76
2022/12/31 05:30:07;;;;;;;8.27;5.65;;;;;;;6.43;100.00;99353.13;5051192;28;20044;-76
2022/12/31 05:32:33;;;;;;;15.15;5.90;;;;;;;6.50;100.00;99370.13;5051467;28;20100;-76
2022/12/31 05:34:59;;;;;;;7.78;5.78;;;;;;;6.41;100.00;99357.50;5051193;28;20029;-76
2022/12/31 05:37:26;;;;;;;6.18;5.38;;;;;;;6.45;100.00;99366.03;5051071;28;20044;-76
2022/12/31 05:39:52;;;;;;;6.47;5.30;;;;;;;6.44;100.00;99359.13;5051848;28;20048;-76
2022/12/31 05:42:17;;;;;;;6.70;5.53;;;;;;;6.54;100.00;99364.84;5054551;28;20171;-76
2022/12/31 05:44:42;;;;;;;6.72;5.10;;;;;;;6.56;100.00;99368.22;5054751;28;20442;-76
2022/12/31 05:47:08;;;;;;;7.38;5.47;;;;;;;6.50;100.00;99354.59;5054599;28;20017;-76
2022/12/31 05:49:34;;;;;;;7.30;5.20;;;;;;;6.54;100.00;99355.34;5054579;28;20045;-76
2022/12/31 05:51:59;;;;;;;6.55;5.22;;;;;;;6.57;100.00;99364.72;5054645;28;20067;-76
2022/12/31 05:54:25;;;;;;;6.40;5.35;;;;;;;6.64;100.00;99367.06;5054412;28;20078;-76
2022/12/31 05:56:50;;;;;;;5.80;4.93;;;;;;;6.64;100.00;99369.63;5054431;28;20021;-76
2022/12/31 05:59:16;;;;;;;5.55;4.70;;;;;;;6.61;100.00;99372.31;5054481;28;20116;-76
2022/12/31 06:01:41;;;;;;;6.88;4.85;;;;;;;6.72;100.00;99383.16;5054319;28;20025;-76
2022/12/31 06:04:06;;;;;;;5.72;4.75;;;;;;;6.78;100.00;99378.66;5054247;28;20104;-76
2022/12/31 06:06:32;;;;;;;5.18;4.50;;;;;;;6.80;100.00;99369.94;5054209;28;20013;-76
2022/12/31 06:08:57;;;;;;;5.20;4.43;;;;;;;6.89;100.00;99371.38;5054360;28;20025;-76
2022/12/31 06:11:22;;;;;;;5.40;4.15;;;;;;;6.90;100.00;99371.31;5054097;28;20471;-76
2022/12/31 06:13:48;;;;;;;5.40;4.40;;;;;;;6.90;100.00;99373.88;5054393;28;20025;-76
2022/12/31 06:16:13;;;;;;;5.35;4.03;;;;;;;6.91;100.00;99382.50;5053924;28;20068;-76
2022/12/31 06:18:38;;;;;;;5.80;4.10;;;;;;;6.94;100.00;99383.22;5054231;28;20064;-76
2022/12/31 06:21:04;;;;;;;4.85;4.10;;;;;;;6.91;100.00;99373.00;5054062;28;20025;-76
2022/12/31 06:23:29;;;;;;;4.10;3.70;;;;;;;7.00;100.00;99388.22;5053800;28;20075;-76
2022/12/31 06:25:55;;;;;;;4.90;3.70;;;;;;;7.03;100.00;99387.22;5054043;28;20521;-76
2022/12/31 06:28:20;;;;;;;4.57;4.18;;;;;;;6.97;100.00;99380.53;5053586;28;20029;-76
2022/12/31 06:30:46;;;;;;;5.47;4.40;;;;;;;7.02;100.00;99388.13;5053962;28;20032;-76
2022/12/31 06:33:11;;;;;;;5.00;4.13;;;;;;;7.14;100.00;99395.47;5053752;28;20032;-76
2022/12/31 06:35:36;;;;;;;5.53;4.13;;;;;;;7.18;100.00;99397.03;5053879;28;20021;-76
2022/12/31 06:38:02;;;;;;;5.32;4.05;;;;;;;7.22;100.00;99392.59;5054099;28;20027;-76
2022/12/31 06:40:27;;;;;;;3.92;3.50;;;;;;;7.22;100.00;99380.50;5053281;28;20504;-76
2022/12/31 06:42:53;;;;;;;4.88;4.03;;;;;;;7.33;100.00;99382.69;5053516;28;20033;-76
2022/12/31 06:45:19;;;;;;;5.50;4.25;;;;;;;7.30;100.00;99387.13;5053482;28;20029;-76
2022/12/31 06:47:44;;;;;;;4.43;4.00;;;;;;;7.26;100.00;99376.03;5053628;28;20032;-76
2022/12/31 06:50:10;;;;;;;5.22;4.47;;;;;;;7.15;100.00;99371.25;5053487;28;20360;-76
2022/12/31 06:52:36;;;;;;;6.00;4.80;;;;;;;7.12;100.00;99366.22;5052064;28;20616;-76
2022/12/31 06:55:01;;;;;;;6.30;5.25;;;;;;;7.19;100.00;99395.28;5053485;28;20031;-76
2022/12/31 06:57:27;;;;;;;6.18;5.45;;;;;;;7.13;100.00;99377.41;5053059;28;20626;-76
2022/12/31 06:59:53;;;;;;;6.07;5.28;;;;;;;7.16;100.00;99375.56;5053314;28;20457;-76
2022/12/31 07:02:33;;;;;;;7.25;6.40;;;;;;;7.29;100.00;99381.13;5052980;28;20032;-76
2022/12/31 07:05:11;;;;;;;5.70;4.95;;;;;;;7.33;100.00;99393.06;5053449;28;20480;-75
2022/12/31 07:07:49;;;;;;;6.45;5.10;;;;;;;7.46;100.00;99411.56;5053367;28;20068;-76
2022/12/31 07:10:17;;;;;;;5.72;5.10;;;;;;;7.53;100.00;99413.00;5053083;28;20020;-76
2022/12/31 07:12:48;;;;;;;5.47;4.40;;;;;;;7.64;100.00;99407.44;5053185;28;20017;-76
2022/12/31 07:15:19;;;;;;;5.90;4.60;;;;;;;7.69;100.00;99397.72;5053036;28;20400;-76
2022/12/31 07:18:00;;;;;;;4.40;4.00;;;;;;;7.74;100.00;99398.38;5053068;28;20074;-76
2022/12/31 07:20:26;;;;;;;4.65;4.22;;;;;;;7.81;100.00;99410.22;5052781;28;20067;-76
2022/12/31 07:22:51;;;;;;;5.18;4.68;;;;;;;7.85;100.00;99408.34;5052997;28;20045;-76
2022/12/31 07:25:18;;;;;;;5.43;4.40;;;;;;;7.90;100.00;99415.03;5052824;28;20056;-75
2022/12/31 07:27:56;;;;;;;5.75;5.00;;;;;;;7.95;100.00;99391.50;5052954;28;20683;-76
2022/12/31 07:30:47;;;;;;;5.93;4.50;;;;;;;8.14;100.00;99414.97;5052512;28;20464;-76
2022/12/31 07:33:34;;;;;;;6.20;4.50;;;;;;;8.20;100.00;99412.97;5052908;28;20472;-76
2022/12/31 07:36:17;;;;;;;6.03;5.07;;;;;;;8.28;100.00;99410.06;5052463;28;20805;-75
2022/12/31 07:38:55;;;;;;;4.43;4.03;;;;;;;8.34;100.00;99412.38;5052621;28;20055;-76
2022/12/31 07:41:23;;;;;;;5.43;4.60;;;;;;;8.38;100.00;99418.31;5052801;28;20032;-76
2022/12/31 07:44:00;;;;;;;5.88;4.75;;;;;;;8.32;100.00;99388.25;5052506;28;20460;-76
2022/12/31 07:46:56;;;;;;;6.90;5.78;;;;;;;8.42;100.00;99396.53;5052261;28;20025;-76
2022/12/31 07:49:24;;;;;;;14.10;11.48;;;;;;;8.46;100.00;99398.94;5051996;28;20037;-76
2022/12/31 07:51:51;;;;;;;9.25;7.90;;;;;;;8.52;100.00;99403.03;5052484;28;20025;-76
2022/12/31 07:54:16;;;;;;;7.18;5.90;;;;;;;8.52;100.00;99386.63;5052038;28;20503;-76
2022/12/31 07:56:42;;;;;;;5.57;5.07;;;;;;;8.62;100.00;99414.72;5052264;28;20021;-76
2022/12/31 07:59:46;;;;;;;5.72;5.00;;;;;;;8.75;100.00;99420.22;5052340;28;20020;-76
2022/12/31 08:02:38;;;;;;;6.72;5.40;;;;;;;8.84;100.00;99431.97;5029782;28;20120;-76
2022/12/31 08:05:04;;;;;;;5.93;5.32;;;;;;;8.82;100.00;99419.06;5029779;28;20033;-76
2022/12/31 08:07:35;;;;;;;6.05;5.45;;;;;;;8.90;100.00;99435.16;5029600;28;20476;-75
2022/12/31 08:10:13;;;;;;;7.70;6.05;;;;;;;8.90;100.00;99429.13;5029634;28;20104;-76
2022/12/31 08:12:40;;;;;;;9.98;5.45;;;;;;;8.95;100.00;99424.56;5029171;28;20037;-76
2022/12/31 08:15:13;;;;;;;14.32;6.63;;;;;;;8.95;100.00;99406.38;5029750;28;20025;-76
2022/12/31 08:17:39;;;;;;;17.30;7.43;;;;;;;9.07;100.00;99411.03;5029411;28;20381;-75
2022/12/31 08:20:05;;;;;;;13.23;7.18;;;;;;;9.18;100.00;99418.34;5029735;28;20025;-75
2022/12/31 08:22:49;;;;;;;19.98;8.43;;;;;;;9.25;100.00;99420.63;5029685;28;20031;-76
2022/12/31 08:25:24;;;;;;;25.63;9.50;;;;;;;9.28;100.00;99426.59;5029601;28;20041;-75
2022/12/31 08:27:56;;;;;;;14.35;7.13;;;;;;;9.28;100.00;99430.03;5029610;28;20103;-75
2022/12/31 08:30:28;;;;;;;19.65;8.13;;;;;;;9.30;100.00;99410.00;5029166;28;20614;-76
2022/12/31 08:33:10;;;;;;;8.70;5.18;;;;;;;9.31;100.00;99408.25;5029487;28;20021;-76
2022/12/31 08:35:47;;;;;;;17.05;6.25;;;;;;;9.38;100.00;99428.69;5029287;28;20611;-76
2022/12/31 08:38:34;;;;;;;8.02;4.40;;;;;;;9.40;100.00;99420.84;5045037;28;20040;-76
2022/12/31 08:41:08;;;;;;;6.53;4.10;;;;;;;9.49;100.00;99429.06;5052068;28;20025;-76
2022/12/31 08:43:36;;;;;;;5.20;3.85;;;;;;;9.51;100.00;99418.59;5051436;28;20028;-76
2022/12/31 08:46:06;;;;;;;7.28;4.55;;;;;;;9.50;100.00;99404.75;5051575;28;20457;-76
2022/12/31 08:48:39;;;;;;;7.82;4.43;;;;;;;9.59;100.00;99420.84;5051278;28;20025;-76
2022/12/31 08:51:05;;;;;;;5.95;3.80;;;;;;;9.59;100.00;99407.84;5051635;28;20103;-76
2022/12/31 08:53:31;;;;;;;5.85;3.65;;;;;;;9.65;100.00;99415.34;5051162;28;20023;-76
2022/12/31 08:56:06;;;;;;;4.63;3.25;;;;;;;9.58;100.00;99395.75;5051351;28;20108;-76
2022/12/31 08:59:02;;;;;;;6.55;3.25;;;;;;;9.73;100.00;99400.22;5051504;28;20444;-76
2022/12/31 09:01:51;;;;;;;4.20;3.28;;;;;;;9.85;100.00;99410.06;5008897;28;20049;-76
2022/12/31 09:04:41;;;;;;;5.43;3.30;;;;;;;9.86;100.00;99384.88;5009265;28;20046;-77
2022/12/31 09:07:08;;;;;;;5.03;3.42;;;;;;;9.92;100.00;99400.22;5009219;28;20501;-77
2022/12/31 09:09:55;;;;;;;5.15;3.22;;;;;;;9.97;100.00;99398.22;5009248;28;20034;-77
2022/12/31 09:12:31;;;;;;;3.55;2.85;;;;;;;10.00;100.00;99393.72;5008967;28;20045;-77
2022/12/31 09:15:08;;;;;;;3.75;2.60;;;;;;;10.02;100.00;99411.84;5010204;28;20050;-76
2022/12/31 09:17:42;;;;;;;2.95;2.47;;;;;;;10.11;100.00;99420.97;5012817;28;20053;-77
2022/12/31 09:20:14;;;;;;;3.15;2.65;;;;;;;10.14;100.00;99426.03;5012574;28;20091;-77
2022/12/31 09:22:39;;;;;;;3.85;2.63;;;;;;;10.18;100.00;99418.00;5012586;28;20026;-77
2022/12/31 09:25:05;;;;;;;3.22;2.63;;;;;;;10.22;100.00;99411.72;5013020;28;20038;-77
2022/12/31 09:27:48;;;;;;;3.60;2.58;;;;;;;10.30;100.00;99414.00;5012701;28;20101;-77
2022/12/31 09:30:16;;;;;;;3.40;2.67;;;;;;;10.39;100.00;99420.50;4996313;28;20079;-77
2022/12/31 09:33:04;;;;;;;3.58;2.72;;;;;;;10.46;100.00;99414.09;5012681;28;20061;-77
2022/12/31 09:35:35;;;;;;;3.00;2.65;;;;;;;10.57;100.00;99416.13;5012676;28;20476;-77
2022/12/31 09:38:07;;;;;;;;;;;;;;;10.61;100.00;99415.06;5024639;28;20036;-77
2022/12/31 09:40:50;;;;;;;3.33;2.53;;;;;;;10.61;100.00;99410.69;5054802;28;19927;-77
2022/12/31 09:43:56;;;;;;;3.53;3.00;;;;;;;10.56;100.00;99397.06;5054938;28;20039;-77
2022/12/31 09:46:33;;;;;;;4.60;2.97;;;;;;;10.64;100.00;99404.50;5054876;28;20484;-76
2022/12/31 09:49:29;;;;;;;2.75;2.53;;;;;;;10.69;100.00;99415.53;5054679;28;20013;-77
2022/12/31 09:52:26;;;;;;;3.53;2.40;;;;;;;10.73;100.00;99417.03;5053448;28;20028;-77
2022/12/31 09:55:04;;;;;;;3.60;3.10;;;;;;;10.73;100.00;99414.44;5054410;28;20452;-77
2022/12/31 09:57:48;;;;;;;3.22;2.92;;;;;;;10.81;100.00;99408.84;5054306;28;20024;-77
2022/12/31 10:00:32;;;;;;;4.13;2.58;;;;;;;10.84;100.00;99406.94;5054594;28;20028;-77
2022/12/31 10:03:18;;;;;;;3.28;2.63;;;;;;;10.97;100.00;99402.75;5054414;28;20060;-76
2022/12/31 10:06:08;;;;;;;5.15;4.07;;;;;;;11.18;100.00;99392.13;5054194;28;20025;-76
2022/12/31 10:08:46;;;;;;;4.70;3.50;;;;;;;11.33;100.00;99398.28;5054144;28;20025;-76
2022/12/31 10:11:39;;;;;;;4.70;3.60;;;;;;;11.39;100.00;99404.03;5054276;28;20024;-77
2022/12/31 10:14:29;;;;;;;3.85;3.13;;;;;;;11.38;100.00;99388.47;5054368;28;20381;-76
2022/12/31 10:17:06;;;;;;;3.75;3.20;;;;;;;11.50;100.00;99385.16;5054218;28;20556;-75
2022/12/31 10:20:02;;;;;;;4.38;3.22;;;;;;;11.65;100.00;99404.38;5053936;28;20364;-75
2022/12/31 10:22:58;;;;;;;3.33;3.00;;;;;;;11.80;100.00;99400.94;5054000;28;20114;-75
2022/12/31 10:25:54;;;;;;;6.25;3.70;;;;;;;11.85;100.00;99380.66;5044224;28;20527;-75
2022/12/31 10:28:29;;;;;;;4.13;3.42;;;;;;;11.88;100.00;99382.25;5049776;28;20041;-75
2022/12/31 10:31:12;;;;;;;4.82;3.53;;;;;;;11.87;100.00;99388.41;5038654;28;20057;-75
2022/12/31 10:34:11;;;;;;;4.45;3.97;;;;;;;11.86;100.00;99384.94;5033391;28;20029;-75
2022/12/31 10:36:53;;;;;;;3.55;3.22;;;;;;;11.87;100.00;99380.56;5035038;28;20471;-75
2022/12/31 10:39:35;;;;;;;9.48;3.78;;;;;;;11.87;100.00;99381.41;5033739;28;20050;-75
2022/12/31 10:42:37;;;;;;;5.47;4.68;;;;;;;11.84;100.00;99385.94;5033363;28;20108;-75
2022/12/31 10:45:39;;;;;;;3.92;3.58;;;;;;;11.85;100.00;99392.88;5033739;28;20029;-75
2022/12/31 10:48:23;;;;;;;4.68;3.65;;;;;;;11.90;100.00;99388.22;5034927;28;20028;-75
2022/12/31 10:51:06;;;;;;;6.25;4.05;;;;;;;11.95;100.00;99397.47;5052862;28;20121;-75
2022/12/31 10:53:54;;;;;;;6.82;4.28;;;;;;;12.06;100.00;99394.28;5053222;28;20091;-75
2022/12/31 10:56:40;;;;;;;4.80;3.65;;;;;;;12.14;100.00;99384.25;5052421;28;20105;-75
2022/12/31 10:59:24;;;;;;;5.63;3.75;;;;;;;12.15;100.00;99372.84;5052848;28;20035;-75
2022/12/31 11:02:20;;;;;;;6.45;4.30;;;;;;;12.13;100.00;99373.88;5052558;28;20021;-75
2022/12/31 11:05:22;;;;;;;7.68;4.40;;;;;;;12.06;100.00;99376.00;5052758;28;20020;-75
2022/12/31 11:08:06;;;;;;;7.07;4.05;;;;;;;12.00;100.00;99376.34;5052986;28;20021;-75
2022/12/31 11:10:59;;;;;;;4.40;3.55;;;;;;;12.03;100.00;99377.94;5052684;28;20064;-75
2022/12/31 11:13:49;;;;;;;5.13;3.78;;;;;;;12.04;100.00;99377.00;5053193;28;20108;-75
2022/12/31 11:16:21;;;;;;;;;;;;;;;12.04;100.00;99364.78;5053396;28;20020;-75
2022/12/31 11:19:17;;;;;;;4.75;4.07;;;;;;;12.04;100.00;99371.78;5046604;28;20222;-75
2022/12/31 11:22:00;;;;;;;4.00;3.42;;;;;;;12.05;100.00;99361.28;5032780;28;20037;-75
2022/12/31 11:24:59;;;;;;;3.63;3.22;;;;;;;11.99;100.00;99345.94;5033232;28;20116;-75
2022/12/31 11:27:53;;;;;;;4.65;3.53;;;;;;;12.06;100.00;99362.94;5033049;28;20051;-75
2022/12/31 11:30:23;;;;;;;4.95;3.80;;;;;;;12.05;100.00;99356.06;5032686;28;20024;-75
2022/12/31 11:33:04;;;;;;;;;;;;;;;12.10;100.00;99368.84;5033202;28;20072;-75
2022/12/31 11:36:06;;;;;;;4.78;3.60;;;;;;;12.18;100.00;99353.56;5032515;28;19905;-75
2022/12/31 11:38:50;;;;;;;6.05;4.03;;;;;;;12.18;100.00;99338.75;5031687;28;20134;-75
2022/12/31 11:41:29;;;;;;;5.40;4.28;;;;;;;12.25;100.00;99339.22;5032959;28;20087;-75
2022/12/31 11:44:29;;;;;;;5.93;3.53;;;;;;;12.30;100.00;99346.78;5032663;28;20030;-76
2022/12/31 11:47:27;;;;;;;4.32;3.70;;;;;;;12.28;100.00;99346.88;5032541;28;20036;-75
2022/12/31 11:50:32;;;;;;;4.28;3.20;;;;;;;12.17;100.00;99330.97;5032371;28;20026;-75
2022/12/31 11:53:03;;;;;;;4.78;3.50;;;;;;;12.28;100.00;99343.44;5032401;28;20050;-75
2022/12/31 11:55:37;;;;;;;4.03;3.63;;;;;;;12.29;100.00;99347.72;5032258;28;20354;-75
2022/12/31 11:58:15;;;;;;;4.43;3.58;;;;;;;12.35;100.00;99345.59;5032512;28;20461;-75
2022/12/31 12:00:50;;;;;;;4.65;3.28;;;;;;;12.37;100.00;99351.56;5032141;28;20025;-75
2022/12/31 12:03:16;;;;;;;3.25;2.90;;;;;;;12.41;100.00;99355.66;5032463;28;20057;-75
2022/12/31 12:05:41;;;;;;;6.68;3.30;;;;;;;12.43;100.00;99347.72;5032149;28;20500;-75